Time;durP1;ratioP1;P1;durP2;ratioP2;P2;SDS_P1;SDS_P2;PMS_P1;PMS_P2;Temp;Humidity;BMP_temperature;BMP_pressure;BME280_temperature;BME280_humidity;BME280_pressure;Samples;Min_cycle;Max_cycle;Signal;HPM_P1;HPM_P2
2021/10/20 00:02:09;;;;;;;7.68;6.88;;;;;;;;;;5057027;28;20201;-74
2021/10/20 00:04:34;;;;;;;8.85;7.15;;;;;;;;;;5045022;28;20288;-73
2021/10/20 00:07:00;;;;;;;8.95;7.32;;;;;;;;;;5057816;28;20292;-74
2021/10/20 00:09:25;;;;;;;9.35;7.30;;;;;;;;;;5056887;28;20174;-74
2021/10/20 00:11:50;;;;;;;8.85;6.75;;;;;;;;;;5060218;28;20195;-74
2021/10/20 00:14:16;;;;;;;9.53;6.40;;;;;;;;;;5034948;28;20193;-74
2021/10/20 00:16:41;;;;;;;7.40;6.00;;;;;;;;;;5069584;28;20425;-73
2021/10/20 00:19:06;;;;;;;8.55;6.22;;;;;;;;;;5065295;28;20193;-73
2021/10/20 00:21:32;;;;;;;13.05;6.55;;;;;;;;;;5056767;28;20185;-74
2021/10/20 00:23:59;;;;;;;6.93;6.20;;;;;;;;;;5057979;28;20198;-73
2021/10/20 00:26:24;;;;;;;9.68;6.53;;;;;;;;;;5066501;28;20205;-73
2021/10/20 00:28:50;;;;;;;8.68;6.30;;;;;;;;;;5061503;28;20192;-71
2021/10/20 00:31:15;;;;;;;16.70;8.13;;;;;;;;;;5062095;28;20177;-74
2021/10/20 00:33:40;;;;;;;8.55;6.45;;;;;;;;;;5062536;28;20622;-74
2021/10/20 00:36:05;;;;;;;7.32;6.50;;;;;;;;;;5059257;28;20177;-74
2021/10/20 00:38:30;;;;;;;8.93;7.30;;;;;;;;;;5060447;28;20683;-74
2021/10/20 00:40:56;;;;;;;8.82;6.57;;;;;;;;;;5059007;28;20264;-73
2021/10/20 00:43:21;;;;;;;10.30;7.20;;;;;;;;;;5065015;28;20699;-73
2021/10/20 00:45:47;;;;;;;7.85;6.50;;;;;;;;;;5050472;28;20209;-73
2021/10/20 00:48:12;;;;;;;9.65;6.78;;;;;;;;;;5061017;28;20256;-74
2021/10/20 00:50:37;;;;;;;11.50;7.03;;;;;;;;;;5056186;28;20182;-71
2021/10/20 00:53:03;;;;;;;12.27;6.55;;;;;;;;;;5057996;28;20193;-73
2021/10/20 00:55:28;;;;;;;10.50;7.47;;;;;;;;;;5063072;28;20259;-73
2021/10/20 00:57:53;;;;;;;8.02;7.15;;;;;;;;;;5050100;28;20267;-74
2021/10/20 01:00:19;;;;;;;12.85;6.88;;;;;;;;;;5059348;28;20236;-73
2021/10/20 01:02:44;;;;;;;9.32;6.30;;;;;;;;;;5037476;28;20297;-73
2021/10/20 01:05:10;;;;;;;8.98;5.80;;;;;;;;;;5053300;28;20181;-74
2021/10/20 01:07:35;;;;;;;10.70;6.80;;;;;;;;;;5061767;28;20593;-73
2021/10/20 01:10:01;;;;;;;8.52;6.43;;;;;;;;;;5055792;28;20232;-73
2021/10/20 01:12:27;;;;;;;8.45;7.18;;;;;;;;;;5062379;28;20211;-74
2021/10/20 01:14:53;;;;;;;9.07;7.45;;;;;;;;;;5063293;28;20181;-74
2021/10/20 01:17:18;;;;;;;8.13;6.95;;;;;;;;;;5061525;28;20688;-73
2021/10/20 01:19:43;;;;;;;9.40;6.22;;;;;;;;;;5042230;28;20197;-74
2021/10/20 01:22:09;;;;;;;8.40;6.88;;;;;;;;;;5061257;28;20243;-73
2021/10/20 01:24:34;;;;;;;8.30;6.97;;;;;;;;;;5052912;28;20189;-73
2021/10/20 01:26:59;;;;;;;11.25;7.10;;;;;;;;;;5065756;28;20307;-74
2021/10/20 01:29:25;;;;;;;9.90;7.57;;;;;;;;;;5062385;28;20178;-73
2021/10/20 01:31:54;;;;;;;7.93;7.10;;;;;;;;;;5042872;28;20751;-73
2021/10/20 01:34:20;;;;;;;9.43;7.30;;;;;;;;;;5058508;28;20178;-73
2021/10/20 01:36:47;;;;;;;16.52;8.90;;;;;;;;;;5055639;28;20243;-73
2021/10/20 01:39:12;;;;;;;13.73;7.47;;;;;;;;;;5051251;28;20181;-74
2021/10/20 01:41:37;;;;;;;12.15;7.55;;;;;;;;;;5060875;28;20654;-74
2021/10/20 01:44:03;;;;;;;9.93;7.70;;;;;;;;;;5049425;28;20720;-73
2021/10/20 01:46:29;;;;;;;11.45;7.35;;;;;;;;;;5046235;28;20205;-73
2021/10/20 01:48:54;;;;;;;9.40;7.38;;;;;;;;;;5053601;28;20566;-73
2021/10/20 01:51:19;;;;;;;10.20;8.40;;;;;;;;;;5063235;28;20565;-73
2021/10/20 01:53:45;;;;;;;8.35;7.55;;;;;;;;;;5060449;28;20484;-74
2021/10/20 01:56:11;;;;;;;10.48;8.43;;;;;;;;;;5064388;28;20184;-72
2021/10/20 01:58:37;;;;;;;12.38;8.40;;;;;;;;;;5052961;28;20185;-73
2021/10/20 02:01:07;;;;;;;9.27;7.72;;;;;;;;;;5047401;28;20204;-73
2021/10/20 02:03:33;;;;;;;11.32;7.70;;;;;;;;;;5068922;23;20224;-71
2021/10/20 02:05:58;;;;;;;9.45;8.45;;;;;;;;;;5057933;28;20203;-71
2021/10/20 02:08:23;;;;;;;9.60;7.25;;;;;;;;;;5051247;28;20177;-71
2021/10/20 02:10:48;;;;;;;11.95;8.48;;;;;;;;;;5053034;28;20216;-71
2021/10/20 02:13:14;;;;;;;12.40;8.57;;;;;;;;;;5058723;28;20192;-71
2021/10/20 02:15:39;;;;;;;11.25;7.90;;;;;;;;;;5065426;28;20729;-71
2021/10/20 02:18:04;;;;;;;13.17;8.43;;;;;;;;;;5067962;28;20177;-71
2021/10/20 02:20:29;;;;;;;10.93;8.60;;;;;;;;;;5055679;28;20474;-71
2021/10/20 02:22:55;;;;;;;12.10;8.98;;;;;;;;;;5064556;28;20207;-71
2021/10/20 02:25:22;;;;;;;9.00;7.78;;;;;;;;;;5062017;28;20631;-71
2021/10/20 02:27:47;;;;;;;12.07;8.30;;;;;;;;;;5065742;28;20188;-71
2021/10/20 02:30:13;;;;;;;9.35;7.72;;;;;;;;;;5061840;28;20180;-71
2021/10/20 02:32:38;;;;;;;11.77;7.78;;;;;;;;;;5040796;28;20180;-71
2021/10/20 02:35:05;;;;;;;8.85;7.82;;;;;;;;;;5066910;28;20650;-71
2021/10/20 02:37:30;;;;;;;10.75;8.55;;;;;;;;;;5054865;28;20187;-71
2021/10/20 02:39:55;;;;;;;14.00;7.93;;;;;;;;;;5062427;28;20173;-71
2021/10/20 02:42:21;;;;;;;9.97;8.03;;;;;;;;;;5060416;28;20244;-71
2021/10/20 02:44:46;;;;;;;10.50;8.63;;;;;;;;;;5064719;28;20437;-71
2021/10/20 02:47:11;;;;;;;10.07;7.97;;;;;;;;;;5061017;28;20208;-71
2021/10/20 02:49:36;;;;;;;11.13;7.65;;;;;;;;;;5068680;28;20173;-71
2021/10/20 02:52:02;;;;;;;10.80;8.43;;;;;;;;;;5063897;28;20173;-71
2021/10/20 02:54:27;;;;;;;12.45;8.90;;;;;;;;;;5066686;28;20196;-71
2021/10/20 02:56:52;;;;;;;12.63;8.65;;;;;;;;;;5050234;28;20185;-72
2021/10/20 02:59:17;;;;;;;10.25;8.35;;;;;;;;;;5063812;28;20584;-71
2021/10/20 03:01:42;;;;;;;11.23;8.35;;;;;;;;;;5066263;28;20673;-71
2021/10/20 03:04:08;;;;;;;9.93;8.32;;;;;;;;;;5064196;28;20208;-71
2021/10/20 03:06:33;;;;;;;12.03;8.03;;;;;;;;;;5073953;28;20204;-72
2021/10/20 03:08:58;;;;;;;14.27;8.73;;;;;;;;;;5076776;28;20410;-71
2021/10/20 03:11:24;;;;;;;12.13;7.72;;;;;;;;;;5071949;28;20275;-71
2021/10/20 03:13:49;;;;;;;9.45;7.55;;;;;;;;;;5070025;28;20209;-71
2021/10/20 03:16:14;;;;;;;8.63;7.72;;;;;;;;;;5068076;28;20654;-71
2021/10/20 03:18:39;;;;;;;10.73;7.65;;;;;;;;;;5065701;28;20198;-71
2021/10/20 03:21:05;;;;;;;9.18;7.60;;;;;;;;;;5068475;28;20181;-71
2021/10/20 03:23:30;;;;;;;9.70;8.38;;;;;;;;;;5067589;28;20200;-71
2021/10/20 03:25:55;;;;;;;9.35;8.13;;;;;;;;;;5069185;28;20558;-71
2021/10/20 03:28:20;;;;;;;11.20;8.48;;;;;;;;;;5066526;28;20181;-71
2021/10/20 03:30:45;;;;;;;9.13;7.38;;;;;;;;;;5063946;28;20176;-71
2021/10/20 03:33:11;;;;;;;10.63;8.50;;;;;;;;;;5066237;28;20185;-72
2021/10/20 03:35:36;;;;;;;10.57;8.45;;;;;;;;;;5048628;28;20188;-71
2021/10/20 03:38:02;;;;;;;11.05;8.10;;;;;;;;;;5053103;28;20617;-71
2021/10/20 03:40:28;;;;;;;12.05;8.43;;;;;;;;;;5064332;28;20173;-71
2021/10/20 03:42:53;;;;;;;11.25;8.32;;;;;;;;;;5064244;28;20207;-71
2021/10/20 03:45:18;;;;;;;10.85;8.32;;;;;;;;;;5069237;28;20548;-71
2021/10/20 03:47:44;;;;;;;10.77;8.82;;;;;;;;;;5068090;28;20200;-71
2021/10/20 03:50:09;;;;;;;10.02;8.70;;;;;;;;;;5052955;28;20179;-71
2021/10/20 03:52:34;;;;;;;12.80;9.27;;;;;;;;;;5069435;28;20177;-71
2021/10/20 03:55:00;;;;;;;13.10;8.50;;;;;;;;;;5072334;28;20177;-71
2021/10/20 03:57:25;;;;;;;13.23;9.70;;;;;;;;;;5065914;28;20180;-71
2021/10/20 03:59:50;;;;;;;11.15;8.70;;;;;;;;;;5071314;28;20181;-71
2021/10/20 04:02:15;;;;;;;14.30;8.90;;;;;;;;;;5068427;28;20184;-71
2021/10/20 04:04:41;;;;;;;12.52;8.65;;;;;;;;;;5069442;28;20705;-71
2021/10/20 04:07:06;;;;;;;10.15;8.98;;;;;;;;;;5067005;28;20664;-71
2021/10/20 04:09:32;;;;;;;11.68;8.23;;;;;;;;;;5072759;28;20238;-71
2021/10/20 04:11:57;;;;;;;12.13;9.10;;;;;;;;;;5053631;28;20561;-71
2021/10/20 04:14:22;;;;;;;14.10;9.18;;;;;;;;;;5050834;28;20735;-72
2021/10/20 04:16:47;;;;;;;12.52;8.88;;;;;;;;;;5069057;28;20185;-71
2021/10/20 04:19:12;;;;;;;12.30;8.88;;;;;;;;;;5069118;28;20181;-71
2021/10/20 04:21:38;;;;;;;10.20;8.45;;;;;;;;;;5070302;28;20184;-71
2021/10/20 04:24:03;;;;;;;11.90;8.50;;;;;;;;;;5068141;28;20211;-71
2021/10/20 04:26:28;;;;;;;10.70;8.85;;;;;;;;;;5067210;28;20205;-71
2021/10/20 04:28:53;;;;;;;15.45;9.23;;;;;;;;;;5068906;28;20180;-71
2021/10/20 04:31:19;;;;;;;9.67;8.23;;;;;;;;;;5058710;28;20184;-71
2021/10/20 04:33:44;;;;;;;11.25;8.52;;;;;;;;;;5068847;28;21048;-71
2021/10/20 04:36:09;;;;;;;9.55;8.20;;;;;;;;;;5068365;28;20204;-71
2021/10/20 04:38:34;;;;;;;11.13;8.45;;;;;;;;;;5070746;28;20196;-71
2021/10/20 04:41:00;;;;;;;12.35;9.52;;;;;;;;;;5068060;28;20193;-72
2021/10/20 04:43:25;;;;;;;10.43;7.85;;;;;;;;;;5067021;28;20239;-71
2021/10/20 04:45:52;;;;;;;13.00;8.50;;;;;;;;;;5067221;28;20548;-71
2021/10/20 04:48:17;;;;;;;11.25;8.52;;;;;;;;;;5049923;28;20677;-71
2021/10/20 04:50:42;;;;;;;12.60;8.35;;;;;;;;;;5069637;28;20185;-71
2021/10/20 04:53:07;;;;;;;11.85;8.55;;;;;;;;;;5070442;28;20189;-72
2021/10/20 04:55:34;;;;;;;10.77;8.77;;;;;;;;;;5070372;28;20612;-71
2021/10/20 04:58:01;;;;;;;10.30;8.85;;;;;;;;;;5044124;28;20433;-71
2021/10/20 05:00:26;;;;;;;11.52;8.85;;;;;;;;;;5050222;28;20568;-71
2021/10/20 05:02:51;;;;;;;13.75;9.05;;;;;;;;;;5060266;28;20197;-72
2021/10/20 05:05:16;;;;;;;11.37;8.80;;;;;;;;;;5067863;28;20185;-72
2021/10/20 05:07:54;;;;;;;11.93;8.32;;;;;;;;;;5069658;28;20457;-71
2021/10/20 05:10:23;;;;;;;9.38;8.02;;;;;;;;;;5068950;28;20177;-71
2021/10/20 05:12:48;;;;;;;13.27;9.20;;;;;;;;;;5053862;28;20556;-71
2021/10/20 05:15:15;;;;;;;9.85;8.60;;;;;;;;;;5069005;28;20184;-72
2021/10/20 05:17:40;;;;;;;10.32;8.15;;;;;;;;;;5047650;28;20189;-71
2021/10/20 05:20:07;;;;;;;8.88;7.95;;;;;;;;;;5060506;28;20195;-71
2021/10/20 05:22:33;;;;;;;12.40;8.05;;;;;;;;;;5066285;28;20181;-71
2021/10/20 05:24:58;;;;;;;11.23;8.02;;;;;;;;;;5061793;28;20665;-71
2021/10/20 05:27:23;;;;;;;10.82;8.55;;;;;;;;;;5047545;28;20216;-71
2021/10/20 05:29:48;;;;;;;11.37;7.83;;;;;;;;;;5069843;28;20222;-71
2021/10/20 05:32:13;;;;;;;9.53;8.33;;;;;;;;;;5049668;28;20460;-71
2021/10/20 05:34:38;;;;;;;10.55;7.93;;;;;;;;;;5065189;28;20510;-71
2021/10/20 05:37:04;;;;;;;8.67;7.17;;;;;;;;;;5069410;28;20180;-71
2021/10/20 05:39:29;;;;;;;11.30;7.70;;;;;;;;;;5066243;28;20521;-71
2021/10/20 05:41:54;;;;;;;11.60;7.13;;;;;;;;;;5061305;28;20177;-71
2021/10/20 05:44:19;;;;;;;9.45;7.60;;;;;;;;;;5065375;28;20437;-71
2021/10/20 05:46:46;;;;;;;10.00;7.88;;;;;;;;;;5063975;28;20693;-71
2021/10/20 05:49:11;;;;;;;10.13;7.78;;;;;;;;;;5059707;28;20272;-71
2021/10/20 05:51:36;;;;;;;9.27;7.60;;;;;;;;;;5064083;28;20252;-71
2021/10/20 05:54:02;;;;;;;13.32;8.07;;;;;;;;;;5066171;28;20196;-71
2021/10/20 05:56:27;;;;;;;10.55;8.07;;;;;;;;;;5064428;28;20181;-71
2021/10/20 05:58:52;;;;;;;9.52;7.60;;;;;;;;;;5059407;28;20242;-71
2021/10/20 06:01:19;;;;;;;10.80;7.68;;;;;;;;;;5047803;28;20490;-71
2021/10/20 06:03:44;;;;;;;7.70;6.28;;;;;;;;;;5048844;28;20668;-71
2021/10/20 06:06:09;;;;;;;10.68;7.10;;;;;;;;;;5062881;28;20201;-70
2021/10/20 06:08:34;;;;;;;8.93;6.10;;;;;;;;;;5056290;28;20621;-70
2021/10/20 06:11:00;;;;;;;8.20;6.47;;;;;;;;;;5065780;28;20421;-71
2021/10/20 06:13:25;;;;;;;9.07;7.20;;;;;;;;;;5059000;28;20244;-70
2021/10/20 06:15:50;;;;;;;8.23;6.53;;;;;;;;;;5058748;28;20177;-71
2021/10/20 06:18:15;;;;;;;9.70;7.07;;;;;;;;;;5060830;28;20947;-71
2021/10/20 06:20:40;;;;;;;9.45;6.72;;;;;;;;;;5064162;28;20180;-71
2021/10/20 06:23:06;;;;;;;8.43;7.13;;;;;;;;;;5048484;28;20201;-71
2021/10/20 06:25:31;;;;;;;10.43;7.78;;;;;;;;;;5061888;28;20185;-71
2021/10/20 06:27:56;;;;;;;9.88;6.63;;;;;;;;;;5058088;28;20197;-71
2021/10/20 06:30:21;;;;;;;9.35;6.35;;;;;;;;;;5058668;28;20724;-71
2021/10/20 06:32:47;;;;;;;7.63;6.10;;;;;;;;;;5054820;28;20641;-71
2021/10/20 06:35:12;;;;;;;7.35;5.85;;;;;;;;;;5053144;28;20176;-71
2021/10/20 06:37:38;;;;;;;7.53;5.90;;;;;;;;;;5058214;28;20269;-70
2021/10/20 06:40:04;;;;;;;7.57;6.68;;;;;;;;;;5060618;28;20204;-71
2021/10/20 06:42:30;;;;;;;9.32;6.85;;;;;;;;;;5068686;28;20188;-70
2021/10/20 06:44:56;;;;;;;7.38;6.60;;;;;;;;;;5065300;28;20336;-71
2021/10/20 06:47:22;;;;;;;8.13;6.25;;;;;;;;;;5056801;28;20205;-70
2021/10/20 06:49:47;;;;;;;9.25;6.43;;;;;;;;;;5054012;28;20195;-71
2021/10/20 06:52:12;;;;;;;9.35;6.20;;;;;;;;;;5051675;28;20173;-70
2021/10/20 06:54:37;;;;;;;7.57;6.35;;;;;;;;;;5057085;28;20206;-70
2021/10/20 06:57:03;;;;;;;7.78;6.38;;;;;;;;;;5058565;28;20177;-71
2021/10/20 06:59:28;;;;;;;8.85;6.43;;;;;;;;;;5056654;28;20177;-71
2021/10/20 07:01:53;;;;;;;9.00;6.17;;;;;;;;;;5059719;28;20903;-71
2021/10/20 07:04:19;;;;;;;8.43;7.20;;;;;;;;;;5058816;28;20457;-71
2021/10/20 07:06:44;;;;;;;7.18;6.28;;;;;;;;;;5040493;28;20197;-71
2021/10/20 07:09:10;;;;;;;9.48;6.35;;;;;;;;;;5065171;28;20233;-71
2021/10/20 07:11:35;;;;;;;7.90;6.87;;;;;;;;;;5067341;28;20208;-71
2021/10/20 07:14:00;;;;;;;9.30;6.68;;;;;;;;;;5067327;28;20464;-72
2021/10/20 07:16:25;;;;;;;8.70;7.20;;;;;;;;;;5061347;28;20177;-71
2021/10/20 07:18:51;;;;;;;9.32;6.65;;;;;;;;;;5064685;28;20247;-71
2021/10/20 07:21:17;;;;;;;7.97;7.18;;;;;;;;;;5061252;28;20257;-72
2021/10/20 07:23:42;;;;;;;12.45;7.07;;;;;;;;;;5070447;28;20205;-72
2021/10/20 07:26:08;;;;;;;9.50;7.90;;;;;;;;;;5064817;28;20211;-71
2021/10/20 07:28:33;;;;;;;11.20;7.97;;;;;;;;;;5072740;28;20641;-72
2021/10/20 07:30:58;;;;;;;11.10;8.57;;;;;;;;;;5071297;28;20193;-72
2021/10/20 07:33:23;;;;;;;7.93;7.13;;;;;;;;;;5064068;28;20669;-71
2021/10/20 07:35:48;;;;;;;8.97;7.03;;;;;;;;;;5069070;28;20541;-72
2021/10/20 07:38:14;;;;;;;9.57;7.72;;;;;;;;;;5064290;28;20467;-71
2021/10/20 07:40:39;;;;;;;8.65;7.57;;;;;;;;;;5053924;28;20294;-71
2021/10/20 07:43:04;;;;;;;13.27;8.33;;;;;;;;;;5049665;28;20207;-71
2021/10/20 07:45:29;;;;;;;10.80;9.05;;;;;;;;;;5063302;28;20461;-71
2021/10/20 07:47:55;;;;;;;10.13;8.27;;;;;;;;;;5063497;28;20248;-72
2021/10/20 07:50:20;;;;;;;10.25;8.00;;;;;;;;;;5053787;28;20676;-71
2021/10/20 07:52:49;;;;;;;11.05;7.90;;;;;;;;;;5065386;28;20270;-72
2021/10/20 07:55:16;;;;;;;8.95;7.95;;;;;;;;;;5058738;28;20180;-71
2021/10/20 07:57:41;;;;;;;12.57;8.10;;;;;;;;;;5062741;28;20818;-71
2021/10/20 08:00:07;;;;;;;8.85;7.38;;;;;;;;;;5058281;28;20284;-71
2021/10/20 08:02:32;;;;;;;8.50;7.45;;;;;;;;;;5059950;28;20181;-71
2021/10/20 08:04:57;;;;;;;12.10;7.78;;;;;;;;;;5050668;23;20244;-74
2021/10/20 08:07:22;;;;;;;8.88;7.45;;;;;;;;;;5052798;28;20556;-73
2021/10/20 08:09:48;;;;;;;9.00;7.93;;;;;;;;;;5048161;28;20213;-74
2021/10/20 08:12:13;;;;;;;9.07;7.05;;;;;;;;;;5046473;28;20265;-74
2021/10/20 08:14:41;;;;;;;8.13;7.32;;;;;;;;;;5044922;28;20190;-74
2021/10/20 08:17:07;;;;;;;10.70;8.20;;;;;;;;;;5048698;28;20182;-74
2021/10/20 08:19:32;;;;;;;8.70;7.72;;;;;;;;;;5049142;28;20538;-74
2021/10/20 08:21:57;;;;;;;10.07;8.02;;;;;;;;;;5042482;28;20239;-72
2021/10/20 08:24:22;;;;;;;9.80;7.50;;;;;;;;;;5027253;28;20210;-74
2021/10/20 08:26:47;;;;;;;10.23;8.70;;;;;;;;;;5033318;28;20209;-75
2021/10/20 08:29:13;;;;;;;8.17;7.43;;;;;;;;;;5028234;28;20213;-73
2021/10/20 08:31:38;;;;;;;11.57;7.95;;;;;;;;;;5012900;28;20489;-74
2021/10/20 08:34:03;;;;;;;8.77;7.35;;;;;;;;;;5030720;28;20206;-74
2021/10/20 08:36:28;;;;;;;9.07;8.18;;;;;;;;;;5031583;28;20214;-74
2021/10/20 08:38:53;;;;;;;9.18;7.90;;;;;;;;;;5029239;28;20289;-71
2021/10/20 08:41:19;;;;;;;11.10;8.00;;;;;;;;;;5028286;28;20543;-74
2021/10/20 08:43:45;;;;;;;10.15;7.72;;;;;;;;;;5037419;28;20205;-73
2021/10/20 08:46:10;;;;;;;11.02;8.10;;;;;;;;;;5011186;28;20207;-73
2021/10/20 08:48:35;;;;;;;9.90;8.25;;;;;;;;;;5030310;28;20291;-74
2021/10/20 08:51:03;;;;;;;8.90;8.05;;;;;;;;;;5013858;28;20576;-73
2021/10/20 08:53:28;;;;;;;8.32;7.43;;;;;;;;;;5010055;28;20799;-73
2021/10/20 08:55:53;;;;;;;9.32;7.95;;;;;;;;;;5027418;28;20255;-74
2021/10/20 08:58:20;;;;;;;11.10;7.30;;;;;;;;;;5028864;28;20905;-72
2021/10/20 09:00:45;;;;;;;11.65;7.95;;;;;;;;;;5026735;28;21650;-73
2021/10/20 09:03:11;;;;;;;10.65;8.05;;;;;;;;;;5031328;28;21408;-72
2021/10/20 09:05:36;;;;;;;9.63;8.45;;;;;;;;;;5030453;28;20192;-72
2021/10/20 09:08:02;;;;;;;9.48;8.52;;;;;;;;;;5029878;28;21086;-72
2021/10/20 09:10:28;;;;;;;9.77;8.27;;;;;;;;;;5031409;28;20184;-73
2021/10/20 09:12:56;;;;;;;8.43;7.53;;;;;;;;;;5027121;28;20627;-73
2021/10/20 09:15:24;;;;;;;10.88;8.73;;;;;;;;;;5030142;28;20213;-73
2021/10/20 09:17:53;;;;;;;11.10;9.60;;;;;;;;;;5031206;28;20186;-74
2021/10/20 09:20:35;;;;;;;9.85;8.88;;;;;;;;;;5029681;28;20655;-73
2021/10/20 09:23:03;;;;;;;9.23;8.15;;;;;;;;;;5026935;28;20189;-74
2021/10/20 09:25:33;;;;;;;10.10;9.05;;;;;;;;;;5027667;28;20193;-73
2021/10/20 09:27:59;;;;;;;12.32;9.43;;;;;;;;;;5027284;28;20216;-73
2021/10/20 09:30:27;;;;;;;9.93;8.93;;;;;;;;;;5030769;28;20400;-73
2021/10/20 09:32:52;;;;;;;10.02;8.50;;;;;;;;;;5028143;28;20182;-73
2021/10/20 09:35:17;;;;;;;9.90;8.55;;;;;;;;;;5030611;28;20263;-73
2021/10/20 09:37:42;;;;;;;9.68;8.68;;;;;;;;;;5032853;28;20212;-73
2021/10/20 09:40:12;;;;;;;16.52;10.82;;;;;;;;;;5028116;28;20186;-73
2021/10/20 09:42:51;;;;;;;12.60;8.60;;;;;;;;;;5037624;28;20608;-73
2021/10/20 09:45:18;;;;;;;10.48;8.57;;;;;;;;;;5029176;28;20200;-73
2021/10/20 09:47:43;;;;;;;9.48;8.57;;;;;;;;;;5026346;28;20209;-73
2021/10/20 09:50:09;;;;;;;10.73;8.50;;;;;;;;;;5022987;28;20181;-73
2021/10/20 09:52:45;;;;;;;10.68;9.13;;;;;;;;;;5026584;28;20191;-73
2021/10/20 09:55:14;;;;;;;9.32;8.25;;;;;;;;;;5029213;28;20229;-74
2021/10/20 09:57:40;;;;;;;8.85;8.05;;;;;;;;;;5021833;28;20260;-73
2021/10/20 10:00:05;;;;;;;13.27;9.98;;;;;;;;;;5025441;28;20194;-73
2021/10/20 10:02:31;;;;;;;9.75;8.77;;;;;;;;;;5029458;28;20177;-73
2021/10/20 10:04:56;;;;;;;9.50;8.60;;;;;;;;;;5028125;28;20236;-74
2021/10/20 10:07:22;;;;;;;11.13;8.20;;;;;;;;;;5030441;28;20659;-73
2021/10/20 10:09:47;;;;;;;7.70;6.90;;;;;;;;;;5030131;28;20181;-73
2021/10/20 10:12:15;;;;;;;7.33;6.57;;;;;;;;;;5008614;28;20505;-73
2021/10/20 10:14:51;;;;;;;9.18;7.30;;;;;;;;;;5028881;28;20450;-74
2021/10/20 10:17:17;;;;;;;9.93;7.13;;;;;;;;;;5031560;28;20235;-73
2021/10/20 10:19:43;;;;;;;8.43;7.60;;;;;;;;;;5032447;28;20190;-73
2021/10/20 10:22:18;;;;;;;9.20;6.95;;;;;;;;;;5030390;28;20181;-73
2021/10/20 10:24:44;;;;;;;7.28;6.38;;;;;;;;;;5022664;28;20205;-74
2021/10/20 10:27:10;;;;;;;7.82;6.22;;;;;;;;;;5027827;28;20869;-73
2021/10/20 10:29:48;;;;;;;8.68;7.07;;;;;;;;;;5028549;28;20330;-73
2021/10/20 10:32:13;;;;;;;8.32;7.07;;;;;;;;;;5031050;28;21670;-72
2021/10/20 10:34:44;;;;;;;13.55;7.43;;;;;;;;;;5030047;28;20201;-72
2021/10/20 10:37:20;;;;;;;8.75;6.47;;;;;;;;;;5028125;28;20181;-72
2021/10/20 10:39:47;;;;;;;7.80;6.47;;;;;;;;;;5030412;28;20572;-74
2021/10/20 10:42:14;;;;;;;12.20;6.40;;;;;;;;;;5035646;28;20561;-72
2021/10/20 10:44:45;;;;;;;7.40;6.70;;;;;;;;;;5015451;28;20321;-72
2021/10/20 10:47:18;;;;;;;7.22;5.90;;;;;;;;;;5009327;28;20577;-72
2021/10/20 10:49:45;;;;;;;7.68;6.03;;;;;;;;;;5029487;28;20753;-72
2021/10/20 10:52:18;;;;;;;9.45;6.80;;;;;;;;;;5027340;28;20188;-72
2021/10/20 10:54:54;;;;;;;6.95;6.05;;;;;;;;;;5009954;28;20218;-73
2021/10/20 10:57:19;;;;;;;8.38;5.85;;;;;;;;;;5030039;28;20196;-73
2021/10/20 10:59:52;;;;;;;7.50;6.40;;;;;;;;;;5031609;28;20182;-72
2021/10/20 11:02:36;;;;;;;6.90;6.30;;;;;;;;;;5029798;28;20430;-72
2021/10/20 11:05:02;;;;;;;6.80;6.10;;;;;;;;;;5028514;28;20687;-72
2021/10/20 11:07:28;;;;;;;6.47;5.43;;;;;;;;;;5028691;28;20218;-72
2021/10/20 11:09:55;;;;;;;6.78;5.05;;;;;;;;;;5030399;28;20174;-72
2021/10/20 11:12:23;;;;;;;8.10;6.50;;;;;;;;;;5027456;28;20204;-72
2021/10/20 11:14:49;;;;;;;9.43;6.00;;;;;;;;;;5028813;28;20687;-72
2021/10/20 11:17:16;;;;;;;7.10;5.25;;;;;;;;;;5025400;28;20654;-72
2021/10/20 11:19:41;;;;;;;8.73;5.53;;;;;;;;;;5030928;28;20956;-72
2021/10/20 11:22:07;;;;;;;7.47;6.18;;;;;;;;;;5026961;28;20197;-71
2021/10/20 11:24:33;;;;;;;7.57;5.88;;;;;;;;;;5030035;28;20288;-74
2021/10/20 11:27:01;;;;;;;8.75;6.00;;;;;;;;;;5035117;28;20200;-74
2021/10/20 11:29:27;;;;;;;8.45;5.45;;;;;;;;;;5014738;28;20183;-72
2021/10/20 11:31:53;;;;;;;8.82;5.57;;;;;;;;;;5033805;28;20230;-72
2021/10/20 11:34:19;;;;;;;6.13;5.28;;;;;;;;;;5032474;28;20263;-72
2021/10/20 11:36:44;;;;;;;7.55;5.43;;;;;;;;;;5033769;28;20426;-72
2021/10/20 11:39:10;;;;;;;5.90;5.30;;;;;;;;;;5031639;28;20254;-72
2021/10/20 11:41:56;;;;;;;9.05;5.75;;;;;;;;;;5030014;28;20181;-72
2021/10/20 11:44:25;;;;;;;6.80;5.35;;;;;;;;;;5030667;28;20216;-72
2021/10/20 11:46:50;;;;;;;6.93;5.80;;;;;;;;;;5012706;28;20284;-72
2021/10/20 11:49:15;;;;;;;6.88;5.55;;;;;;;;;;5026899;28;21821;-72
2021/10/20 11:51:41;;;;;;;6.72;4.90;;;;;;;;;;5025160;28;20188;-73
2021/10/20 11:54:07;;;;;;;8.82;5.70;;;;;;;;;;5026653;28;20201;-73
2021/10/20 11:56:32;;;;;;;7.30;5.00;;;;;;;;;;5034449;28;20205;-73
2021/10/20 11:58:58;;;;;;;6.30;5.68;;;;;;;;;;5030503;28;20277;-74
2021/10/20 12:01:23;;;;;;;6.95;5.68;;;;;;;;;;5032158;28;20182;-75
2021/10/20 12:03:49;;;;;;;7.18;5.88;;;;;;;;;;5016368;28;20304;-73
2021/10/20 12:06:16;;;;;;;6.38;5.45;;;;;;;;;;5029994;28;20225;-74
2021/10/20 12:08:45;;;;;;;6.53;5.90;;;;;;;;;;5031748;28;20686;-74
2021/10/20 12:11:11;;;;;;;8.93;5.85;;;;;;;;;;5013242;28;20244;-72
2021/10/20 12:13:37;;;;;;;6.05;5.45;;;;;;;;;;5038974;28;20202;-74
2021/10/20 12:16:03;;;;;;;8.35;6.32;;;;;;;;;;5032293;28;20181;-74
2021/10/20 12:18:29;;;;;;;6.30;5.70;;;;;;;;;;5036301;28;20181;-73
2021/10/20 12:20:55;;;;;;;6.50;5.55;;;;;;;;;;5032881;28;20179;-73
2021/10/20 12:23:20;;;;;;;9.75;5.50;;;;;;;;;;5030786;28;20196;-74
2021/10/20 12:25:46;;;;;;;7.25;4.97;;;;;;;;;;5027807;28;20186;-73
2021/10/20 12:28:11;;;;;;;6.53;4.43;;;;;;;;;;5034281;28;20259;-73
2021/10/20 12:30:37;;;;;;;5.22;4.70;;;;;;;;;;5030249;28;20174;-72
2021/10/20 12:33:12;;;;;;;6.80;4.28;;;;;;;;;;5031409;28;20239;-72
2021/10/20 12:35:45;;;;;;;6.10;4.65;;;;;;;;;;5026725;28;20757;-72
2021/10/20 12:38:11;;;;;;;5.72;4.50;;;;;;;;;;5022453;28;20197;-72
2021/10/20 12:40:36;;;;;;;8.52;4.32;;;;;;;;;;5024258;28;20212;-72
2021/10/20 12:43:07;;;;;;;5.30;4.20;;;;;;;;;;5032164;28;20510;-72
2021/10/20 12:45:33;;;;;;;7.20;4.05;;;;;;;;;;5030346;28;20214;-73
2021/10/20 12:48:00;;;;;;;7.10;3.90;;;;;;;;;;5028973;28;20214;-73
2021/10/20 12:50:27;;;;;;;5.28;3.30;;;;;;;;;;5012091;28;20179;-73
2021/10/20 12:52:52;;;;;;;6.72;3.67;;;;;;;;;;5029068;28;20210;-73
2021/10/20 12:55:18;;;;;;;8.30;3.78;;;;;;;;;;5014316;28;20739;-74
2021/10/20 12:57:45;;;;;;;6.78;3.40;;;;;;;;;;5031353;28;20193;-71
2021/10/20 13:00:11;;;;;;;7.35;3.13;;;;;;;;;;5031477;28;20672;-74
2021/10/20 13:02:37;;;;;;;7.28;3.28;;;;;;;;;;5029533;28;20194;-73
2021/10/20 13:05:09;;;;;;;6.93;2.95;;;;;;;;;;5013528;28;20227;-71
2021/10/20 13:07:35;;;;;;;7.95;2.83;;;;;;;;;;5029442;28;20292;-71
2021/10/20 13:10:00;;;;;;;7.25;3.47;;;;;;;;;;5025063;28;20854;-72
2021/10/20 13:12:26;;;;;;;9.73;3.53;;;;;;;;;;5028129;28;20181;-72
2021/10/20 13:14:51;;;;;;;8.50;2.75;;;;;;;;;;5009280;28;20552;-72
2021/10/20 13:17:16;;;;;;;7.50;2.85;;;;;;;;;;5028269;28;20213;-72
2021/10/20 13:19:41;;;;;;;6.03;3.37;;;;;;;;;;5009117;28;20188;-72
2021/10/20 13:22:07;;;;;;;8.27;3.13;;;;;;;;;;5029585;28;20414;-72
2021/10/20 13:24:32;;;;;;;6.03;3.33;;;;;;;;;;5013054;28;20455;-72
2021/10/20 13:26:57;;;;;;;6.53;3.40;;;;;;;;;;5031886;28;20194;-72
2021/10/20 13:29:22;;;;;;;7.72;3.28;;;;;;;;;;5029673;28;20271;-72
2021/10/20 13:31:47;;;;;;;10.60;3.27;;;;;;;;;;5020893;28;20178;-72
2021/10/20 13:34:13;;;;;;;3.72;2.45;;;;;;;;;;5029518;28;20808;-72
2021/10/20 13:36:38;;;;;;;5.95;3.00;;;;;;;;;;5032128;28;20201;-72
2021/10/20 13:39:04;;;;;;;9.02;3.30;;;;;;;;;;5029131;28;20551;-72
2021/10/20 13:41:29;;;;;;;4.85;3.00;;;;;;;;;;5028926;28;20639;-72
2021/10/20 13:43:54;;;;;;;4.93;3.17;;;;;;;;;;5029546;28;20694;-72
2021/10/20 13:46:19;;;;;;;4.82;3.10;;;;;;;;;;5029123;28;20485;-72
2021/10/20 13:48:45;;;;;;;6.70;2.90;;;;;;;;;;5028130;28;20250;-73
2021/10/20 13:51:10;;;;;;;5.60;3.13;;;;;;;;;;5024381;28;20205;-73
2021/10/20 13:53:35;;;;;;;4.40;3.53;;;;;;;;;;5025146;28;20220;-73
2021/10/20 13:56:00;;;;;;;7.38;2.88;;;;;;;;;;5026785;28;20434;-72
2021/10/20 13:58:25;;;;;;;9.43;3.90;;;;;;;;;;5028038;28;20217;-72
2021/10/20 14:00:51;;;;;;;9.10;2.80;;;;;;;;;;5031884;28;20253;-72
2021/10/20 14:03:16;;;;;;;13.75;3.65;;;;;;;;;;5028871;28;20280;-72
2021/10/20 14:05:42;;;;;;;7.23;3.57;;;;;;;;;;5077393;22;21437;-71
2021/10/20 14:08:07;;;;;;;6.13;2.65;;;;;;;;;;5069762;28;20940;-72
2021/10/20 14:10:32;;;;;;;4.95;2.80;;;;;;;;;;5068182;28;20180;-72
2021/10/20 14:12:57;;;;;;;4.90;3.10;;;;;;;;;;5068663;28;20298;-72
2021/10/20 14:15:22;;;;;;;5.53;3.00;;;;;;;;;;5062518;28;20212;-72
2021/10/20 14:17:48;;;;;;;4.20;3.55;;;;;;;;;;5070216;28;20437;-71
2021/10/20 14:20:13;;;;;;;6.63;3.00;;;;;;;;;;5073409;28;20697;-74
2021/10/20 14:22:39;;;;;;;7.32;3.58;;;;;;;;;;5070917;28;20478;-71
2021/10/20 14:25:04;;;;;;;7.03;3.40;;;;;;;;;;5067269;28;20728;-72
2021/10/20 14:27:30;;;;;;;4.07;3.30;;;;;;;;;;5069633;28;20200;-71
2021/10/20 14:29:56;;;;;;;6.50;3.85;;;;;;;;;;5070557;28;20173;-73
2021/10/20 14:32:21;;;;;;;4.60;3.67;;;;;;;;;;5070460;28;20271;-72